sensor_id;sensor_type;location;lat;lon;timestamp;temperature;humidity
516;DHT22;244;48.508;9.052;2022-08-26T00:01:56;21.10;11.00
516;DHT22;244;48.508;9.052;2022-08-26T00:04:24;21.00;11.00
516;DHT22;244;48.508;9.052;2022-08-26T00:06:53;21.00;11.10
516;DHT22;244;48.508;9.052;2022-08-26T00:09:23;21.00;11.20
516;DHT22;244;48.508;9.052;2022-08-26T00:11:51;20.90;11.30
516;DHT22;244;48.508;9.052;2022-08-26T00:14:21;20.90;11.40
516;DHT22;244;48.508;9.052;2022-08-26T00:16:48;20.90;11.50
516;DHT22;244;48.508;9.052;2022-08-26T00:19:18;20.90;11.50
516;DHT22;244;48.508;9.052;2022-08-26T00:21:46;20.80;11.60
516;DHT22;244;48.508;9.052;2022-08-26T00:24:15;20.80;12.20
516;DHT22;244;48.508;9.052;2022-08-26T00:26:42;20.80;12.30
516;DHT22;244;48.508;9.052;2022-08-26T00:29:09;20.80;11.80
516;DHT22;244;48.508;9.052;2022-08-26T00:31:38;20.80;11.90
516;DHT22;244;48.508;9.052;2022-08-26T00:34:06;20.70;11.90
516;DHT22;244;48.508;9.052;2022-08-26T00:36:39;20.70;12.00
516;DHT22;244;48.508;9.052;2022-08-26T00:39:07;20.70;12.00
516;DHT22;244;48.508;9.052;2022-08-26T00:41:34;20.70;12.10
516;DHT22;244;48.508;9.052;2022-08-26T00:44:01;20.60;12.10
516;DHT22;244;48.508;9.052;2022-08-26T00:46:30;20.60;12.20
516;DHT22;244;48.508;9.052;2022-08-26T00:49:04;20.60;12.30
516;DHT22;244;48.508;9.052;2022-08-26T00:51:36;20.60;12.40
516;DHT22;244;48.508;9.052;2022-08-26T00:54:07;20.50;13.00
516;DHT22;244;48.508;9.052;2022-08-26T00:56:39;20.50;12.50
516;DHT22;244;48.508;9.052;2022-08-26T00:59:12;20.50;12.50
516;DHT22;244;48.508;9.052;2022-08-26T01:01:42;20.50;12.60
516;DHT22;244;48.508;9.052;2022-08-26T01:04:10;20.50;12.70
516;DHT22;244;48.508;9.052;2022-08-26T01:06:40;20.40;12.90
516;DHT22;244;48.508;9.052;2022-08-26T01:09:08;20.40;12.90
516;DHT22;244;48.508;9.052;2022-08-26T01:11:34;20.40;13.00
516;DHT22;244;48.508;9.052;2022-08-26T01:14:04;20.40;12.90
516;DHT22;244;48.508;9.052;2022-08-26T01:16:32;20.30;12.90
516;DHT22;244;48.508;9.052;2022-08-26T01:19:02;20.30;12.90
516;DHT22;244;48.508;9.052;2022-08-26T01:21:43;20.30;13.50
516;DHT22;244;48.508;9.052;2022-08-26T01:24:13;20.20;12.90
516;DHT22;244;48.508;9.052;2022-08-26T01:26:42;20.20;12.90
516;DHT22;244;48.508;9.052;2022-08-26T01:29:14;20.20;12.90
516;DHT22;244;48.508;9.052;2022-08-26T01:31:44;20.20;12.90
516;DHT22;244;48.508;9.052;2022-08-26T01:34:16;20.10;13.00
516;DHT22;244;48.508;9.052;2022-08-26T01:36:44;20.10;13.10
516;DHT22;244;48.508;9.052;2022-08-26T01:39:12;20.10;13.20
516;DHT22;244;48.508;9.052;2022-08-26T01:41:49;20.00;13.20
516;DHT22;244;48.508;9.052;2022-08-26T01:44:22;20.00;13.20
516;DHT22;244;48.508;9.052;2022-08-26T01:46:51;20.00;13.50
516;DHT22;244;48.508;9.052;2022-08-26T01:49:20;20.00;14.10
516;DHT22;244;48.508;9.052;2022-08-26T01:51:50;20.00;13.60
516;DHT22;244;48.508;9.052;2022-08-26T01:54:21;19.90;13.50
516;DHT22;244;48.508;9.052;2022-08-26T01:56:51;19.90;14.20
516;DHT22;244;48.508;9.052;2022-08-26T01:59:20;19.90;13.80
516;DHT22;244;48.508;9.052;2022-08-26T02:01:48;19.90;14.40
516;DHT22;244;48.508;9.052;2022-08-26T02:04:20;19.80;13.90
516;DHT22;244;48.508;9.052;2022-08-26T02:06:48;19.80;14.00
516;DHT22;244;48.508;9.052;2022-08-26T02:09:20;19.80;14.00
516;DHT22;244;48.508;9.052;2022-08-26T02:11:49;19.70;13.90
516;DHT22;244;48.508;9.052;2022-08-26T02:14:19;19.70;14.00
516;DHT22;244;48.508;9.052;2022-08-26T02:16:49;19.70;14.10
516;DHT22;244;48.508;9.052;2022-08-26T02:19:19;19.70;14.10
516;DHT22;244;48.508;9.052;2022-08-26T02:21:47;19.70;14.10
516;DHT22;244;48.508;9.052;2022-08-26T02:24:16;19.60;14.10
516;DHT22;244;48.508;9.052;2022-08-26T02:26:46;19.60;14.20
516;DHT22;244;48.508;9.052;2022-08-26T02:29:23;19.60;14.20
516;DHT22;244;48.508;9.052;2022-08-26T02:31:52;19.60;14.30
516;DHT22;244;48.508;9.052;2022-08-26T02:34:22;19.50;14.30
516;DHT22;244;48.508;9.052;2022-08-26T02:37:02;19.50;14.30
516;DHT22;244;48.508;9.052;2022-08-26T02:39:32;19.50;14.30
516;DHT22;244;48.508;9.052;2022-08-26T02:42:03;19.50;14.50
516;DHT22;244;48.508;9.052;2022-08-26T02:44:31;19.50;14.50
516;DHT22;244;48.508;9.052;2022-08-26T02:46:58;19.40;14.50
516;DHT22;244;48.508;9.052;2022-08-26T02:49:26;19.40;14.60
516;DHT22;244;48.508;9.052;2022-08-26T02:51:55;19.40;14.70
516;DHT22;244;48.508;9.052;2022-08-26T02:54:22;19.40;15.40
516;DHT22;244;48.508;9.052;2022-08-26T02:56:49;19.30;14.70
516;DHT22;244;48.508;9.052;2022-08-26T02:59:17;19.30;14.80
516;DHT22;244;48.508;9.052;2022-08-26T03:01:47;19.30;15.00
516;DHT22;244;48.508;9.052;2022-08-26T03:04:14;19.30;15.00
516;DHT22;244;48.508;9.052;2022-08-26T03:06:41;19.30;15.10
516;DHT22;244;48.508;9.052;2022-08-26T03:09:09;19.20;15.00
516;DHT22;244;48.508;9.052;2022-08-26T03:11:36;19.20;15.30
516;DHT22;244;48.508;9.052;2022-08-26T03:14:04;19.20;15.10
516;DHT22;244;48.508;9.052;2022-08-26T03:16:35;19.20;15.00
516;DHT22;244;48.508;9.052;2022-08-26T03:19:05;19.10;15.00
516;DHT22;244;48.508;9.052;2022-08-26T03:21:33;19.10;15.10
516;DHT22;244;48.508;9.052;2022-08-26T03:24:00;19.10;15.20
516;DHT22;244;48.508;9.052;2022-08-26T03:26:27;19.00;15.80
516;DHT22;244;48.508;9.052;2022-08-26T03:28:56;19.00;15.90
516;DHT22;244;48.508;9.052;2022-08-26T03:31:42;19.00;15.40
516;DHT22;244;48.508;9.052;2022-08-26T03:34:09;19.00;15.50
516;DHT22;244;48.508;9.052;2022-08-26T03:36:37;19.00;15.60
516;DHT22;244;48.508;9.052;2022-08-26T03:39:12;19.00;15.60
516;DHT22;244;48.508;9.052;2022-08-26T03:41:42;19.00;15.70
516;DHT22;244;48.508;9.052;2022-08-26T03:44:11;19.00;15.70
516;DHT22;244;48.508;9.052;2022-08-26T03:46:38;18.90;15.70
516;DHT22;244;48.508;9.052;2022-08-26T03:49:07;18.90;15.70
516;DHT22;244;48.508;9.052;2022-08-26T03:51:35;18.90;15.80
516;DHT22;244;48.508;9.052;2022-08-26T03:54:03;18.90;15.80
516;DHT22;244;48.508;9.052;2022-08-26T03:56:34;18.80;15.80
516;DHT22;244;48.508;9.052;2022-08-26T03:59:04;18.80;15.90
516;DHT22;244;48.508;9.052;2022-08-26T04:01:31;18.80;16.00
516;DHT22;244;48.508;9.052;2022-08-26T04:03:58;18.80;16.00
516;DHT22;244;48.508;9.052;2022-08-26T04:06:30;18.80;16.00
516;DHT22;244;48.508;9.052;2022-08-26T04:08:59;18.80;16.10
516;DHT22;244;48.508;9.052;2022-08-26T04:11:41;18.80;16.20
516;DHT22;244;48.508;9.052;2022-08-26T04:14:11;18.80;16.20
516;DHT22;244;48.508;9.052;2022-08-26T04:16:42;18.80;16.20
516;DHT22;244;48.508;9.052;2022-08-26T04:19:11;18.70;16.30
516;DHT22;244;48.508;9.052;2022-08-26T04:21:40;18.70;16.30
516;DHT22;244;48.508;9.052;2022-08-26T04:24:09;18.70;16.30
516;DHT22;244;48.508;9.052;2022-08-26T04:26:36;18.70;16.30
516;DHT22;244;48.508;9.052;2022-08-26T04:29:06;18.70;16.30
516;DHT22;244;48.508;9.052;2022-08-26T04:31:35;18.70;16.30
516;DHT22;244;48.508;9.052;2022-08-26T04:34:05;18.70;16.30
516;DHT22;244;48.508;9.052;2022-08-26T04:36:33;18.70;16.30
516;DHT22;244;48.508;9.052;2022-08-26T04:39:02;18.70;16.30
516;DHT22;244;48.508;9.052;2022-08-26T04:41:30;18.70;16.30
516;DHT22;244;48.508;9.052;2022-08-26T04:43:57;18.60;16.30
516;DHT22;244;48.508;9.052;2022-08-26T04:46:26;18.60;16.20
516;DHT22;244;48.508;9.052;2022-08-26T04:48:54;18.60;16.20
516;DHT22;244;48.508;9.052;2022-08-26T04:51:21;18.50;16.20
516;DHT22;244;48.508;9.052;2022-08-26T04:53:52;18.50;16.20
516;DHT22;244;48.508;9.052;2022-08-26T04:56:23;18.50;16.40
516;DHT22;244;48.508;9.052;2022-08-26T04:58:51;18.50;16.50
516;DHT22;244;48.508;9.052;2022-08-26T05:01:18;18.50;16.60
516;DHT22;244;48.508;9.052;2022-08-26T05:03:45;18.50;16.60
516;DHT22;244;48.508;9.052;2022-08-26T05:06:12;18.50;16.70
516;DHT22;244;48.508;9.052;2022-08-26T05:08:41;18.50;16.70
516;DHT22;244;48.508;9.052;2022-08-26T05:11:11;18.60;16.70
516;DHT22;244;48.508;9.052;2022-08-26T05:13:39;18.60;16.70
516;DHT22;244;48.508;9.052;2022-08-26T05:16:11;18.60;16.70
516;DHT22;244;48.508;9.052;2022-08-26T05:18:39;18.60;16.70
516;DHT22;244;48.508;9.052;2022-08-26T05:21:15;18.60;16.70
516;DHT22;244;48.508;9.052;2022-08-26T05:23:42;18.60;16.70
516;DHT22;244;48.508;9.052;2022-08-26T05:26:09;18.70;16.70
516;DHT22;244;48.508;9.052;2022-08-26T05:28:36;18.70;16.70
516;DHT22;244;48.508;9.052;2022-08-26T05:31:12;18.70;16.70
516;DHT22;244;48.508;9.052;2022-08-26T05:33:39;18.70;16.80
516;DHT22;244;48.508;9.052;2022-08-26T05:36:07;18.70;16.70
516;DHT22;244;48.508;9.052;2022-08-26T05:38:35;18.70;16.70
516;DHT22;244;48.508;9.052;2022-08-26T05:41:02;18.70;16.70
516;DHT22;244;48.508;9.052;2022-08-26T05:43:29;18.70;16.70
516;DHT22;244;48.508;9.052;2022-08-26T05:46:04;18.70;16.70
516;DHT22;244;48.508;9.052;2022-08-26T05:48:32;18.70;17.40
516;DHT22;244;48.508;9.052;2022-08-26T05:51:02;18.70;16.80
516;DHT22;244;48.508;9.052;2022-08-26T05:53:30;18.80;16.70
516;DHT22;244;48.508;9.052;2022-08-26T05:55:57;18.80;16.80
516;DHT22;244;48.508;9.052;2022-08-26T05:58:25;18.90;16.90
516;DHT22;244;48.508;9.052;2022-08-26T06:00:57;19.00;16.90
516;DHT22;244;48.508;9.052;2022-08-26T06:03:24;19.00;16.90
516;DHT22;244;48.508;9.052;2022-08-26T06:05:52;19.10;16.90
516;DHT22;244;48.508;9.052;2022-08-26T06:08:19;19.10;16.90
516;DHT22;244;48.508;9.052;2022-08-26T06:10:48;19.20;16.90
516;DHT22;244;48.508;9.052;2022-08-26T06:13:16;19.30;16.80
516;DHT22;244;48.508;9.052;2022-08-26T06:15:46;19.40;16.80
516;DHT22;244;48.508;9.052;2022-08-26T06:18:15;19.50;16.90
516;DHT22;244;48.508;9.052;2022-08-26T06:20:44;19.50;16.70
516;DHT22;244;48.508;9.052;2022-08-26T06:23:14;19.60;16.60
516;DHT22;244;48.508;9.052;2022-08-26T06:25:58;19.70;16.60
516;DHT22;244;48.508;9.052;2022-08-26T06:28:25;19.80;16.50
516;DHT22;244;48.508;9.052;2022-08-26T06:30:53;19.90;16.40
516;DHT22;244;48.508;9.052;2022-08-26T06:33:20;19.90;16.30
516;DHT22;244;48.508;9.052;2022-08-26T06:35:48;20.00;16.20
516;DHT22;244;48.508;9.052;2022-08-26T06:38:17;20.10;16.20
516;DHT22;244;48.508;9.052;2022-08-26T06:40:45;20.20;16.10
516;DHT22;244;48.508;9.052;2022-08-26T06:43:13;20.30;16.10
516;DHT22;244;48.508;9.052;2022-08-26T06:45:40;20.30;16.00
516;DHT22;244;48.508;9.052;2022-08-26T06:48:09;20.40;16.00
516;DHT22;244;48.508;9.052;2022-08-26T06:50:36;20.40;15.90
516;DHT22;244;48.508;9.052;2022-08-26T06:53:03;20.50;15.90
516;DHT22;244;48.508;9.052;2022-08-26T06:55:31;20.60;15.80
516;DHT22;244;48.508;9.052;2022-08-26T06:57:58;20.70;15.80
516;DHT22;244;48.508;9.052;2022-08-26T07:00:25;20.70;15.70
516;DHT22;244;48.508;9.052;2022-08-26T07:02:52;20.70;15.50
516;DHT22;244;48.508;9.052;2022-08-26T07:05:19;20.80;15.50
516;DHT22;244;48.508;9.052;2022-08-26T07:07:46;20.90;15.50
516;DHT22;244;48.508;9.052;2022-08-26T07:10:13;21.00;15.40
516;DHT22;244;48.508;9.052;2022-08-26T07:12:42;21.10;15.30
516;DHT22;244;48.508;9.052;2022-08-26T07:15:09;21.20;15.30
516;DHT22;244;48.508;9.052;2022-08-26T07:17:36;21.20;15.10
516;DHT22;244;48.508;9.052;2022-08-26T07:20:04;21.30;15.10
516;DHT22;244;48.508;9.052;2022-08-26T07:22:33;21.40;15.00
516;DHT22;244;48.508;9.052;2022-08-26T07:25:01;21.50;14.90
516;DHT22;244;48.508;9.052;2022-08-26T07:27:28;21.60;14.80
516;DHT22;244;48.508;9.052;2022-08-26T07:29:56;21.80;14.80
516;DHT22;244;48.508;9.052;2022-08-26T07:32:23;21.90;14.70
516;DHT22;244;48.508;9.052;2022-08-26T07:34:50;21.90;14.50
516;DHT22;244;48.508;9.052;2022-08-26T07:37:17;22.10;14.30
516;DHT22;244;48.508;9.052;2022-08-26T07:39:45;22.20;14.20
516;DHT22;244;48.508;9.052;2022-08-26T07:42:13;22.30;14.30
516;DHT22;244;48.508;9.052;2022-08-26T07:44:41;22.40;14.30
516;DHT22;244;48.508;9.052;2022-08-26T07:47:10;22.50;14.40
516;DHT22;244;48.508;9.052;2022-08-26T07:49:37;22.60;14.00
516;DHT22;244;48.508;9.052;2022-08-26T07:52:05;22.70;13.90
516;DHT22;244;48.508;9.052;2022-08-26T07:54:33;22.90;13.80
516;DHT22;244;48.508;9.052;2022-08-26T07:57:02;22.90;13.50
516;DHT22;244;48.508;9.052;2022-08-26T07:59:29;23.00;13.40
516;DHT22;244;48.508;9.052;2022-08-26T08:01:56;23.10;13.20
516;DHT22;244;48.508;9.052;2022-08-26T08:04:26;23.20;13.10
516;DHT22;244;48.508;9.052;2022-08-26T08:06:54;23.40;12.90
516;DHT22;244;48.508;9.052;2022-08-26T08:09:21;23.50;12.80
516;DHT22;244;48.508;9.052;2022-08-26T08:11:49;23.60;12.70
516;DHT22;244;48.508;9.052;2022-08-26T08:14:16;23.70;12.50
516;DHT22;244;48.508;9.052;2022-08-26T08:16:44;23.80;12.30
516;DHT22;244;48.508;9.052;2022-08-26T08:19:11;23.90;12.10
516;DHT22;244;48.508;9.052;2022-08-26T08:21:39;24.10;12.10
516;DHT22;244;48.508;9.052;2022-08-26T08:24:06;24.20;12.60
516;DHT22;244;48.508;9.052;2022-08-26T08:26:34;24.20;11.70
516;DHT22;244;48.508;9.052;2022-08-26T08:29:01;24.40;11.60
516;DHT22;244;48.508;9.052;2022-08-26T08:31:29;24.40;11.40
516;DHT22;244;48.508;9.052;2022-08-26T08:33:57;24.50;11.20
516;DHT22;244;48.508;9.052;2022-08-26T08:36:24;24.50;11.70
516;DHT22;244;48.508;9.052;2022-08-26T08:38:52;24.70;11.00
516;DHT22;244;48.508;9.052;2022-08-26T08:41:35;24.70;10.70
516;DHT22;244;48.508;9.052;2022-08-26T08:44:09;24.80;10.50
516;DHT22;244;48.508;9.052;2022-08-26T08:46:39;24.90;10.30
516;DHT22;244;48.508;9.052;2022-08-26T08:49:07;25.10;10.20
516;DHT22;244;48.508;9.052;2022-08-26T08:51:40;25.20;10.10
516;DHT22;244;48.508;9.052;2022-08-26T08:54:12;25.30;10.50
516;DHT22;244;48.508;9.052;2022-08-26T08:56:42;25.40;9.80
516;DHT22;244;48.508;9.052;2022-08-26T08:59:13;25.50;9.60
516;DHT22;244;48.508;9.052;2022-08-26T09:01:54;25.50;9.40
516;DHT22;244;48.508;9.052;2022-08-26T09:04:42;25.60;9.20
516;DHT22;244;48.508;9.052;2022-08-26T09:07:17;25.70;9.00
516;DHT22;244;48.508;9.052;2022-08-26T09:09:50;25.80;8.80
516;DHT22;244;48.508;9.052;2022-08-26T09:12:20;25.90;8.70
516;DHT22;244;48.508;9.052;2022-08-26T09:14:49;26.10;8.60
516;DHT22;244;48.508;9.052;2022-08-26T09:17:23;26.10;8.40
516;DHT22;244;48.508;9.052;2022-08-26T09:19:53;26.20;8.80
516;DHT22;244;48.508;9.052;2022-08-26T09:22:28;26.30;7.90
516;DHT22;244;48.508;9.052;2022-08-26T09:24:56;26.40;7.60
516;DHT22;244;48.508;9.052;2022-08-26T09:27:38;26.50;7.60
516;DHT22;244;48.508;9.052;2022-08-26T09:30:07;26.60;7.70
516;DHT22;244;48.508;9.052;2022-08-26T09:32:34;26.70;7.70
516;DHT22;244;48.508;9.052;2022-08-26T09:35:04;26.80;7.40
516;DHT22;244;48.508;9.052;2022-08-26T09:37:38;26.90;7.20
516;DHT22;244;48.508;9.052;2022-08-26T09:40:23;27.00;7.00
516;DHT22;244;48.508;9.052;2022-08-26T09:43:17;27.10;6.80
516;DHT22;244;48.508;9.052;2022-08-26T09:45:46;27.30;6.50
516;DHT22;244;48.508;9.052;2022-08-26T09:48:27;27.40;6.30
516;DHT22;244;48.508;9.052;2022-08-26T09:50:56;27.50;6.10
516;DHT22;244;48.508;9.052;2022-08-26T09:53:24;27.60;5.90
516;DHT22;244;48.508;9.052;2022-08-26T09:56:11;27.70;6.30
516;DHT22;244;48.508;9.052;2022-08-26T09:58:40;27.90;5.50
516;DHT22;244;48.508;9.052;2022-08-26T10:01:13;28.00;5.30
516;DHT22;244;48.508;9.052;2022-08-26T10:03:41;28.10;5.00
516;DHT22;244;48.508;9.052;2022-08-26T10:06:22;28.30;4.80
516;DHT22;244;48.508;9.052;2022-08-26T10:08:54;28.40;4.50
516;DHT22;244;48.508;9.052;2022-08-26T10:11:27;28.50;4.20
516;DHT22;244;48.508;9.052;2022-08-26T10:13:59;28.60;3.80
516;DHT22;244;48.508;9.052;2022-08-26T10:16:44;28.70;3.50
516;DHT22;244;48.508;9.052;2022-08-26T10:19:15;28.80;3.30
516;DHT22;244;48.508;9.052;2022-08-26T10:21:50;28.90;3.00
516;DHT22;244;48.508;9.052;2022-08-26T10:24:21;29.10;2.90
516;DHT22;244;48.508;9.052;2022-08-26T10:26:58;29.20;2.70
516;DHT22;244;48.508;9.052;2022-08-26T10:29:31;29.30;2.40
516;DHT22;244;48.508;9.052;2022-08-26T10:32:04;29.50;2.20
516;DHT22;244;48.508;9.052;2022-08-26T10:34:32;29.70;1.80
516;DHT22;244;48.508;9.052;2022-08-26T10:37:03;30.00;1.30
516;DHT22;244;48.508;9.052;2022-08-26T10:39:38;30.10;1.00
516;DHT22;244;48.508;9.052;2022-08-26T10:42:15;30.30;1.00
516;DHT22;244;48.508;9.052;2022-08-26T10:44:42;30.50;1.00
516;DHT22;244;48.508;9.052;2022-08-26T10:47:15;30.60;1.00
516;DHT22;244;48.508;9.052;2022-08-26T10:49:44;30.80;1.00
516;DHT22;244;48.508;9.052;2022-08-26T10:52:16;31.00;1.00
516;DHT22;244;48.508;9.052;2022-08-26T10:54:46;31.20;1.00
516;DHT22;244;48.508;9.052;2022-08-26T10:57:21;31.30;1.00
516;DHT22;244;48.508;9.052;2022-08-26T10:59:54;31.40;1.00
516;DHT22;244;48.508;9.052;2022-08-26T11:02:27;31.60;1.00
516;DHT22;244;48.508;9.052;2022-08-26T11:05:00;31.80;1.00
516;DHT22;244;48.508;9.052;2022-08-26T11:07:44;31.90;1.00
516;DHT22;244;48.508;9.052;2022-08-26T11:10:52;31.80;1.00
516;DHT22;244;48.508;9.052;2022-08-26T11:14:01;31.90;1.00
516;DHT22;244;48.508;9.052;2022-08-26T11:16:35;31.90;1.00
516;DHT22;244;48.508;9.052;2022-08-26T11:19:03;32.00;1.00
516;DHT22;244;48.508;9.052;2022-08-26T11:21:50;32.00;1.00
516;DHT22;244;48.508;9.052;2022-08-26T11:27:55;32.20;1.00
516;DHT22;244;48.508;9.052;2022-08-26T11:30:48;32.30;1.00
516;DHT22;244;48.508;9.052;2022-08-26T11:36:53;32.70;1.00
516;DHT22;244;48.508;9.052;2022-08-26T11:39:24;32.80;1.00
516;DHT22;244;48.508;9.052;2022-08-26T11:41:54;32.90;1.00
516;DHT22;244;48.508;9.052;2022-08-26T11:44:26;33.00;1.00
516;DHT22;244;48.508;9.052;2022-08-26T11:46:58;33.00;1.00
516;DHT22;244;48.508;9.052;2022-08-26T11:49:25;33.10;1.00
516;DHT22;244;48.508;9.052;2022-08-26T11:52:11;33.10;1.00
516;DHT22;244;48.508;9.052;2022-08-26T11:54:39;32.90;1.00
516;DHT22;244;48.508;9.052;2022-08-26T11:57:07;32.80;1.00
516;DHT22;244;48.508;9.052;2022-08-26T11:59:39;32.80;1.00
516;DHT22;244;48.508;9.052;2022-08-26T12:02:15;32.80;1.00
516;DHT22;244;48.508;9.052;2022-08-26T12:04:46;32.80;1.00
516;DHT22;244;48.508;9.052;2022-08-26T12:07:14;32.90;1.00
516;DHT22;244;48.508;9.052;2022-08-26T12:09:52;33.00;1.00
516;DHT22;244;48.508;9.052;2022-08-26T12:12:23;33.10;1.00
516;DHT22;244;48.508;9.052;2022-08-26T12:15:08;33.20;1.00
516;DHT22;244;48.508;9.052;2022-08-26T12:17:38;33.30;1.00
516;DHT22;244;48.508;9.052;2022-08-26T12:20:11;33.70;1.00
516;DHT22;244;48.508;9.052;2022-08-26T12:22:42;33.80;1.00
516;DHT22;244;48.508;9.052;2022-08-26T12:25:10;33.90;1.00
516;DHT22;244;48.508;9.052;2022-08-26T12:27:39;33.90;1.00
516;DHT22;244;48.508;9.052;2022-08-26T12:30:09;33.80;1.00
516;DHT22;244;48.508;9.052;2022-08-26T12:32:40;33.70;1.00
516;DHT22;244;48.508;9.052;2022-08-26T12:35:08;33.50;1.00
516;DHT22;244;48.508;9.052;2022-08-26T12:37:39;33.30;1.00
516;DHT22;244;48.508;9.052;2022-08-26T12:40:24;33.20;1.00
516;DHT22;244;48.508;9.052;2022-08-26T12:42:53;33.10;1.00
516;DHT22;244;48.508;9.052;2022-08-26T12:45:26;33.00;1.00
516;DHT22;244;48.508;9.052;2022-08-26T12:47:57;32.90;1.00
516;DHT22;244;48.508;9.052;2022-08-26T12:50:26;32.90;1.00
516;DHT22;244;48.508;9.052;2022-08-26T12:52:58;32.80;1.00
516;DHT22;244;48.508;9.052;2022-08-26T12:55:34;32.70;1.00
516;DHT22;244;48.508;9.052;2022-08-26T12:58:23;32.70;1.00
516;DHT22;244;48.508;9.052;2022-08-26T13:00:52;32.80;1.00
516;DHT22;244;48.508;9.052;2022-08-26T13:03:41;32.80;1.00
516;DHT22;244;48.508;9.052;2022-08-26T13:06:11;32.80;1.00
516;DHT22;244;48.508;9.052;2022-08-26T13:08:39;32.80;1.00
516;DHT22;244;48.508;9.052;2022-08-26T13:11:09;32.80;1.00
516;DHT22;244;48.508;9.052;2022-08-26T13:13:36;33.00;1.00
516;DHT22;244;48.508;9.052;2022-08-26T13:16:03;33.10;1.00
516;DHT22;244;48.508;9.052;2022-08-26T13:18:32;33.20;1.00
516;DHT22;244;48.508;9.052;2022-08-26T13:20:58;33.30;1.00
516;DHT22;244;48.508;9.052;2022-08-26T13:23:25;33.60;1.00
516;DHT22;244;48.508;9.052;2022-08-26T13:25:52;33.90;1.00
516;DHT22;244;48.508;9.052;2022-08-26T13:28:19;34.10;1.00
516;DHT22;244;48.508;9.052;2022-08-26T13:30:47;34.20;1.00
516;DHT22;244;48.508;9.052;2022-08-26T13:33:14;34.10;1.00
516;DHT22;244;48.508;9.052;2022-08-26T13:35:44;34.10;1.00
516;DHT22;244;48.508;9.052;2022-08-26T13:38:11;34.00;1.00
516;DHT22;244;48.508;9.052;2022-08-26T13:40:40;33.70;1.00
516;DHT22;244;48.508;9.052;2022-08-26T13:43:08;33.50;1.00
516;DHT22;244;48.508;9.052;2022-08-26T13:45:35;33.40;1.00
516;DHT22;244;48.508;9.052;2022-08-26T13:48:02;33.30;1.00
516;DHT22;244;48.508;9.052;2022-08-26T13:50:29;33.20;1.00
516;DHT22;244;48.508;9.052;2022-08-26T13:52:57;33.20;1.00
516;DHT22;244;48.508;9.052;2022-08-26T13:55:24;33.20;1.00
516;DHT22;244;48.508;9.052;2022-08-26T13:57:52;33.10;1.00
516;DHT22;244;48.508;9.052;2022-08-26T14:00:19;33.10;1.00
516;DHT22;244;48.508;9.052;2022-08-26T14:02:46;33.00;1.00
516;DHT22;244;48.508;9.052;2022-08-26T14:05:13;33.00;1.00
516;DHT22;244;48.508;9.052;2022-08-26T14:07:40;33.00;1.00
516;DHT22;244;48.508;9.052;2022-08-26T14:10:09;33.00;1.00
516;DHT22;244;48.508;9.052;2022-08-26T14:12:36;33.00;1.00
516;DHT22;244;48.508;9.052;2022-08-26T14:15:04;33.00;1.00
516;DHT22;244;48.508;9.052;2022-08-26T14:17:31;33.00;1.00
516;DHT22;244;48.508;9.052;2022-08-26T14:19:58;33.00;1.00
516;DHT22;244;48.508;9.052;2022-08-26T14:22:25;32.90;1.00
516;DHT22;244;48.508;9.052;2022-08-26T14:24:52;32.90;1.00
516;DHT22;244;48.508;9.052;2022-08-26T14:27:20;32.80;1.00
516;DHT22;244;48.508;9.052;2022-08-26T14:29:47;32.60;1.00
516;DHT22;244;48.508;9.052;2022-08-26T14:32:21;32.60;1.00
516;DHT22;244;48.508;9.052;2022-08-26T14:34:49;32.60;1.00
516;DHT22;244;48.508;9.052;2022-08-26T14:37:17;32.70;1.00
516;DHT22;244;48.508;9.052;2022-08-26T14:39:44;32.70;1.00
516;DHT22;244;48.508;9.052;2022-08-26T14:42:12;32.60;1.00
516;DHT22;244;48.508;9.052;2022-08-26T14:44:42;32.60;1.00
516;DHT22;244;48.508;9.052;2022-08-26T14:47:10;32.70;1.00
516;DHT22;244;48.508;9.052;2022-08-26T14:49:36;32.60;1.00
516;DHT22;244;48.508;9.052;2022-08-26T14:52:03;32.40;1.00
516;DHT22;244;48.508;9.052;2022-08-26T14:54:30;32.20;1.00
516;DHT22;244;48.508;9.052;2022-08-26T14:56:59;31.90;1.00
516;DHT22;244;48.508;9.052;2022-08-26T14:59:29;31.60;1.00
516;DHT22;244;48.508;9.052;2022-08-26T15:01:58;31.40;1.00
516;DHT22;244;48.508;9.052;2022-08-26T15:04:25;31.40;1.00
516;DHT22;244;48.508;9.052;2022-08-26T15:06:54;31.50;1.00
516;DHT22;244;48.508;9.052;2022-08-26T15:09:22;31.60;1.00
516;DHT22;244;48.508;9.052;2022-08-26T15:11:49;31.60;1.00
516;DHT22;244;48.508;9.052;2022-08-26T15:14:18;31.50;1.00
516;DHT22;244;48.508;9.052;2022-08-26T15:16:45;31.50;1.00
516;DHT22;244;48.508;9.052;2022-08-26T15:19:14;31.40;1.00
516;DHT22;244;48.508;9.052;2022-08-26T15:21:41;31.50;1.00
516;DHT22;244;48.508;9.052;2022-08-26T15:24:10;31.60;1.00
516;DHT22;244;48.508;9.052;2022-08-26T15:26:38;31.60;1.00
516;DHT22;244;48.508;9.052;2022-08-26T15:29:05;31.60;1.00
516;DHT22;244;48.508;9.052;2022-08-26T15:31:32;31.70;1.00
516;DHT22;244;48.508;9.052;2022-08-26T15:34:02;31.80;1.00
516;DHT22;244;48.508;9.052;2022-08-26T15:36:31;31.80;1.00
516;DHT22;244;48.508;9.052;2022-08-26T15:38:59;32.00;1.00
516;DHT22;244;48.508;9.052;2022-08-26T15:41:26;32.20;1.00
516;DHT22;244;48.508;9.052;2022-08-26T15:43:53;32.50;1.00
516;DHT22;244;48.508;9.052;2022-08-26T15:46:21;33.10;1.00
516;DHT22;244;48.508;9.052;2022-08-26T15:48:48;34.00;1.00
516;DHT22;244;48.508;9.052;2022-08-26T15:51:20;35.20;1.00
516;DHT22;244;48.508;9.052;2022-08-26T15:53:49;36.30;1.00
516;DHT22;244;48.508;9.052;2022-08-26T15:56:16;36.90;1.00
516;DHT22;244;48.508;9.052;2022-08-26T15:58:43;36.90;1.00
516;DHT22;244;48.508;9.052;2022-08-26T16:01:09;36.60;1.00
516;DHT22;244;48.508;9.052;2022-08-26T16:03:36;36.30;1.00
516;DHT22;244;48.508;9.052;2022-08-26T16:06:04;35.90;1.00
516;DHT22;244;48.508;9.052;2022-08-26T16:08:31;35.50;1.00
516;DHT22;244;48.508;9.052;2022-08-26T16:11:01;35.10;1.00
516;DHT22;244;48.508;9.052;2022-08-26T16:13:29;34.60;1.00
516;DHT22;244;48.508;9.052;2022-08-26T16:15:58;34.10;1.00
516;DHT22;244;48.508;9.052;2022-08-26T16:18:24;33.40;1.00
516;DHT22;244;48.508;9.052;2022-08-26T16:20:52;32.90;1.00
516;DHT22;244;48.508;9.052;2022-08-26T16:23:20;32.40;1.00
516;DHT22;244;48.508;9.052;2022-08-26T16:25:47;31.90;1.00
516;DHT22;244;48.508;9.052;2022-08-26T16:28:15;31.40;1.00
516;DHT22;244;48.508;9.052;2022-08-26T16:30:43;30.90;1.00
516;DHT22;244;48.508;9.052;2022-08-26T16:33:10;30.50;1.00
516;DHT22;244;48.508;9.052;2022-08-26T16:35:38;30.10;1.00
516;DHT22;244;48.508;9.052;2022-08-26T16:38:05;29.80;1.00
516;DHT22;244;48.508;9.052;2022-08-26T16:40:33;29.50;1.00
516;DHT22;244;48.508;9.052;2022-08-26T16:43:00;29.20;1.00
516;DHT22;244;48.508;9.052;2022-08-26T16:45:28;28.90;1.00
516;DHT22;244;48.508;9.052;2022-08-26T16:47:55;28.70;1.00
516;DHT22;244;48.508;9.052;2022-08-26T16:50:23;28.60;1.00
516;DHT22;244;48.508;9.052;2022-08-26T16:52:51;28.40;1.00
516;DHT22;244;48.508;9.052;2022-08-26T16:55:19;28.20;1.00
516;DHT22;244;48.508;9.052;2022-08-26T16:57:47;28.10;1.00
516;DHT22;244;48.508;9.052;2022-08-26T17:00:18;27.90;1.00
516;DHT22;244;48.508;9.052;2022-08-26T17:02:46;27.60;1.00
516;DHT22;244;48.508;9.052;2022-08-26T17:05:13;27.00;1.00
516;DHT22;244;48.508;9.052;2022-08-26T17:07:40;26.20;1.10